EZY2344 EGLC-EHAM
Flight info
| Callsign | EZY2344 |
|---|---|
| Flight time | 0h 41m |
| Altitude | 17000 |
| Route | ODUKU M84 CLN P44 RATLO M197 REDFA |
| Aircraft | A321/M-SDE3FGHIRWY/LB1 |
Departure
| Time | 2026-04-28 18:29 |
|---|---|
| Airport | London City Airport (EGLC) |
Arrival
| Time | 2026-04-28 19:10 |
|---|---|
| Airport | Amsterdam Airport Schiphol (EHAM) |
| Time | Latitude | Longitude | Altitude | Speed | Heading |
|---|---|---|---|---|---|
| 2026-04-28 18:18 | 51.50406 | 0.05211 | 27 ft | 0 kts | 182° |
| 2026-04-28 18:24 | 51.50407 | 0.05211 | 27 ft | 2 kts | 182° |
| 2026-04-28 18:24 | 51.50431 | 0.05213 | -183 ft | 4 kts | 190° |
| 2026-04-28 18:25 | 51.50445 | 0.05210 | 114 ft | 4 kts | 268° |
| 2026-04-28 18:25 | 51.50451 | 0.05171 | 29 ft | 3 kts | 278° |
| 2026-04-28 18:25 | 51.50450 | 0.05171 | 29 ft | 0 kts | 274° |
| 2026-04-28 18:26 | 51.50450 | 0.05169 | 29 ft | 2 kts | 274° |
| 2026-04-28 18:26 | 51.50456 | 0.05062 | 28 ft | 16 kts | 281° |
| 2026-04-28 18:27 | 51.50467 | 0.04884 | 30 ft | 15 kts | 271° |
| 2026-04-28 18:27 | 51.50470 | 0.04730 | 30 ft | 14 kts | 273° |
| 2026-04-28 18:27 | 51.50476 | 0.04569 | 26 ft | 16 kts | 274° |
| 2026-04-28 18:27 | 51.50510 | 0.04444 | 26 ft | 5 kts | 355° |
| 2026-04-28 18:28 | 51.50541 | 0.04436 | 26 ft | 4 kts | 346° |
| 2026-04-28 18:28 | 51.50554 | 0.04446 | 26 ft | 1 kts | 46° |
| 2026-04-28 18:28 | 51.50559 | 0.04490 | 28 ft | 11 kts | 82° |
| 2026-04-28 18:28 | 51.50540 | 0.05060 | 32 ft | 99 kts | 92° |
| 2026-04-28 18:29 | 51.50497 | 0.06591 | 236 ft | 156 kts | 88° |
| 2026-04-28 18:29 | 51.50427 | 0.08332 | 1346 ft | 156 kts | 92° |
| 2026-04-28 18:29 | 51.50415 | 0.10076 | 2278 ft | 156 kts | 81° |
| 2026-04-28 18:29 | 51.50743 | 0.11773 | 2679 ft | 168 kts | 60° |
| 2026-04-28 18:30 | 51.51526 | 0.13297 | 2893 ft | 187 kts | 38° |
| 2026-04-28 18:30 | 51.52286 | 0.14031 | 3017 ft | 200 kts | 25° |
| 2026-04-28 18:30 | 51.54025 | 0.15326 | 3326 ft | 209 kts | 24° |
| 2026-04-28 18:30 | 51.55266 | 0.16503 | 3563 ft | 212 kts | 41° |
| 2026-04-28 18:31 | 51.56134 | 0.18527 | 3816 ft | 235 kts | 62° |
| 2026-04-28 18:31 | 51.56897 | 0.21004 | 3975 ft | 255 kts | 62° |
| 2026-04-28 18:31 | 51.57682 | 0.23602 | 4026 ft | 260 kts | 62° |
| 2026-04-28 18:31 | 51.58466 | 0.26219 | 4029 ft | 260 kts | 62° |
| 2026-04-28 18:32 | 51.59257 | 0.28841 | 4034 ft | 261 kts | 62° |
| 2026-04-28 18:32 | 51.60064 | 0.31504 | 4578 ft | 266 kts | 62° |
| 2026-04-28 18:32 | 51.60874 | 0.34187 | 5551 ft | 268 kts | 62° |
| 2026-04-28 18:32 | 51.61695 | 0.36910 | 6418 ft | 272 kts | 62° |
| 2026-04-28 18:33 | 51.62530 | 0.39677 | 7236 ft | 277 kts | 62° |
| 2026-04-28 18:33 | 51.63365 | 0.42446 | 8046 ft | 281 kts | 62° |
| 2026-04-28 18:33 | 51.64223 | 0.45298 | 8857 ft | 286 kts | 62° |
| 2026-04-28 18:33 | 51.65096 | 0.48200 | 9187 ft | 289 kts | 61° |
| 2026-04-28 18:34 | 51.65972 | 0.51111 | 9264 ft | 288 kts | 62° |
| 2026-04-28 18:34 | 51.66842 | 0.54015 | 9272 ft | 288 kts | 62° |
| 2026-04-28 18:34 | 51.67712 | 0.56917 | 9276 ft | 288 kts | 62° |
| 2026-04-28 18:34 | 51.68584 | 0.59822 | 9276 ft | 288 kts | 62° |
| 2026-04-28 18:35 | 51.69454 | 0.62730 | 9350 ft | 291 kts | 62° |
| 2026-04-28 18:35 | 51.70327 | 0.65646 | 10175 ft | 292 kts | 62° |
| 2026-04-28 18:35 | 51.71225 | 0.68658 | 10660 ft | 309 kts | 61° |
| 2026-04-28 18:35 | 51.72195 | 0.71901 | 10875 ft | 332 kts | 62° |
| 2026-04-28 18:36 | 51.73226 | 0.75352 | 11233 ft | 348 kts | 62° |
| 2026-04-28 18:36 | 51.74287 | 0.78912 | 11892 ft | 354 kts | 62° |
| 2026-04-28 18:36 | 51.75356 | 0.82517 | 12606 ft | 359 kts | 62° |
| 2026-04-28 18:36 | 51.76440 | 0.86178 | 13328 ft | 363 kts | 62° |
| 2026-04-28 18:37 | 51.77527 | 0.89849 | 14205 ft | 362 kts | 62° |
| 2026-04-28 18:37 | 51.78623 | 0.93556 | 14751 ft | 370 kts | 62° |
| 2026-04-28 18:37 | 51.79733 | 0.97311 | 15473 ft | 371 kts | 62° |
| 2026-04-28 18:37 | 51.80833 | 1.01047 | 16134 ft | 375 kts | 61° |
| 2026-04-28 18:38 | 51.81961 | 1.04880 | 16771 ft | 380 kts | 61° |
| 2026-04-28 18:38 | 51.83100 | 1.08762 | 17181 ft | 384 kts | 61° |
| 2026-04-28 18:38 | 51.84252 | 1.12692 | 17279 ft | 394 kts | 61° |
| 2026-04-28 18:38 | 51.85434 | 1.16757 | 17282 ft | 403 kts | 62° |
| 2026-04-28 18:39 | 51.86585 | 1.20900 | 17300 ft | 405 kts | 63° |
| 2026-04-28 18:39 | 51.87707 | 1.25088 | 17295 ft | 405 kts | 64° |
| 2026-04-28 18:39 | 51.88813 | 1.29282 | 17290 ft | 405 kts | 64° |
| 2026-04-28 18:39 | 51.89919 | 1.33480 | 17291 ft | 405 kts | 64° |
| 2026-04-28 18:40 | 51.91027 | 1.37672 | 17291 ft | 405 kts | 64° |
| 2026-04-28 18:40 | 51.92127 | 1.41816 | 17292 ft | 405 kts | 64° |
| 2026-04-28 18:40 | 51.93241 | 1.45994 | 17288 ft | 405 kts | 64° |
| 2026-04-28 18:40 | 51.94357 | 1.50177 | 17296 ft | 404 kts | 64° |
| 2026-04-28 18:41 | 51.95474 | 1.54358 | 17291 ft | 404 kts | 64° |
| 2026-04-28 18:41 | 51.96587 | 1.58537 | 17297 ft | 404 kts | 64° |
| 2026-04-28 18:41 | 51.97701 | 1.62732 | 17294 ft | 404 kts | 64° |
| 2026-04-28 18:41 | 51.98804 | 1.66928 | 17298 ft | 405 kts | 66° |
| 2026-04-28 18:42 | 51.99639 | 1.71293 | 17300 ft | 407 kts | 74° |
| 2026-04-28 18:42 | 52.00327 | 1.75750 | 17301 ft | 407 kts | 74° |
| 2026-04-28 18:42 | 52.01008 | 1.80143 | 17298 ft | 407 kts | 74° |
| 2026-04-28 18:42 | 52.01700 | 1.84593 | 17297 ft | 407 kts | 74° |
| 2026-04-28 18:43 | 52.02393 | 1.89049 | 17301 ft | 407 kts | 74° |
| 2026-04-28 18:43 | 52.03083 | 1.93506 | 17292 ft | 407 kts | 74° |
| 2026-04-28 18:43 | 52.03774 | 1.97967 | 17292 ft | 407 kts | 74° |
| 2026-04-28 18:43 | 52.04460 | 2.02424 | 17298 ft | 407 kts | 74° |
| 2026-04-28 18:44 | 52.05143 | 2.06894 | 17289 ft | 408 kts | 75° |
| 2026-04-28 18:44 | 52.06507 | 2.15841 | 17290 ft | 408 kts | 75° |
| 2026-04-28 18:44 | 52.07178 | 2.20250 | 17292 ft | 408 kts | 75° |
| 2026-04-28 18:45 | 52.07856 | 2.24728 | 17293 ft | 408 kts | 75° |
| 2026-04-28 18:45 | 52.08531 | 2.29202 | 17285 ft | 408 kts | 75° |
| 2026-04-28 18:45 | 52.09204 | 2.33690 | 17286 ft | 408 kts | 75° |
| 2026-04-28 18:45 | 52.09874 | 2.38172 | 17294 ft | 408 kts | 75° |
| 2026-04-28 18:46 | 52.10546 | 2.42662 | 17285 ft | 408 kts | 75° |
| 2026-04-28 18:46 | 52.11279 | 2.47124 | 17286 ft | 408 kts | 70° |
| 2026-04-28 18:46 | 52.12399 | 2.51337 | 17287 ft | 406 kts | 59° |
| 2026-04-28 18:46 | 52.13806 | 2.55241 | 17292 ft | 405 kts | 57° |
| 2026-04-28 18:47 | 52.15244 | 2.59185 | 17289 ft | 405 kts | 57° |
| 2026-04-28 18:47 | 52.16678 | 2.63132 | 17287 ft | 406 kts | 57° |
| 2026-04-28 18:47 | 52.18111 | 2.67091 | 17293 ft | 406 kts | 58° |
| 2026-04-28 18:47 | 52.19542 | 2.71056 | 17293 ft | 406 kts | 58° |
| 2026-04-28 18:48 | 52.20971 | 2.75026 | 17296 ft | 406 kts | 58° |
| 2026-04-28 18:48 | 52.22397 | 2.78994 | 17291 ft | 406 kts | 58° |
| 2026-04-28 18:48 | 52.23823 | 2.82971 | 17293 ft | 406 kts | 58° |
| 2026-04-28 18:48 | 52.25249 | 2.86951 | 17295 ft | 406 kts | 58° |
| 2026-04-28 18:49 | 52.26672 | 2.90925 | 17299 ft | 406 kts | 58° |
| 2026-04-28 18:49 | 52.27617 | 2.93563 | 17299 ft | 406 kts | 58° |
| 2026-04-28 18:49 | 52.29518 | 2.98888 | 17297 ft | 406 kts | 58° |
| 2026-04-28 18:49 | 52.30916 | 3.02814 | 17300 ft | 406 kts | 58° |
| 2026-04-28 18:50 | 52.32337 | 3.06806 | 17300 ft | 406 kts | 58° |
| 2026-04-28 18:50 | 52.33756 | 3.10795 | 17301 ft | 406 kts | 58° |
| 2026-04-28 18:50 | 52.35171 | 3.14784 | 17299 ft | 405 kts | 58° |
| 2026-04-28 18:50 | 52.36578 | 3.18753 | 17179 ft | 399 kts | 58° |
| 2026-04-28 18:51 | 52.37946 | 3.22625 | 16903 ft | 388 kts | 58° |
| 2026-04-28 18:51 | 52.39278 | 3.26403 | 16641 ft | 380 kts | 59° |
| 2026-04-28 18:51 | 52.40592 | 3.30137 | 16384 ft | 377 kts | 59° |
| 2026-04-28 18:51 | 52.41896 | 3.33850 | 16129 ft | 375 kts | 59° |
| 2026-04-28 18:52 | 52.43174 | 3.37491 | 15877 ft | 372 kts | 59° |
| 2026-04-28 18:52 | 52.44396 | 3.41179 | 15492 ft | 367 kts | 65° |
| 2026-04-28 18:52 | 52.45235 | 3.45114 | 15050 ft | 365 kts | 76° |
| 2026-04-28 18:52 | 52.45806 | 3.49147 | 14598 ft | 362 kts | 76° |
| 2026-04-28 18:53 | 52.46374 | 3.53152 | 14150 ft | 360 kts | 76° |
| 2026-04-28 18:53 | 52.46946 | 3.57134 | 13672 ft | 357 kts | 76° |
| 2026-04-28 18:53 | 52.47514 | 3.61072 | 13222 ft | 353 kts | 76° |
| 2026-04-28 18:53 | 52.48076 | 3.64978 | 12757 ft | 351 kts | 76° |
| 2026-04-28 18:54 | 52.48632 | 3.68865 | 12279 ft | 349 kts | 76° |
| 2026-04-28 18:54 | 52.49179 | 3.72727 | 11817 ft | 347 kts | 76° |
| 2026-04-28 18:54 | 52.49716 | 3.76520 | 11344 ft | 345 kts | 76° |
| 2026-04-28 18:54 | 52.50259 | 3.80347 | 10874 ft | 343 kts | 76° |
| 2026-04-28 18:55 | 52.50788 | 3.84103 | 10716 ft | 332 kts | 77° |
| 2026-04-28 18:55 | 52.51134 | 3.86563 | 10631 ft | 323 kts | 77° |
| 2026-04-28 18:55 | 52.51782 | 3.91208 | 10466 ft | 308 kts | 77° |
| 2026-04-28 18:55 | 52.52162 | 3.94606 | 10266 ft | 300 kts | 86° |
| 2026-04-28 18:56 | 52.52058 | 3.97979 | 10162 ft | 296 kts | 101° |
| 2026-04-28 18:56 | 52.51479 | 4.01197 | 9890 ft | 294 kts | 112° |
| 2026-04-28 18:56 | 52.50726 | 4.04293 | 9666 ft | 292 kts | 112° |
| 2026-04-28 18:56 | 52.49971 | 4.07383 | 9412 ft | 291 kts | 112° |
| 2026-04-28 18:57 | 52.49226 | 4.10425 | 9164 ft | 290 kts | 112° |
| 2026-04-28 18:57 | 52.48474 | 4.13493 | 8918 ft | 290 kts | 112° |
| 2026-04-28 18:57 | 52.47722 | 4.16548 | 8668 ft | 288 kts | 112° |
| 2026-04-28 18:57 | 52.46972 | 4.19591 | 8412 ft | 287 kts | 111° |
| 2026-04-28 18:58 | 52.46228 | 4.22616 | 8181 ft | 286 kts | 111° |
| 2026-04-28 18:58 | 52.45488 | 4.25626 | 7926 ft | 283 kts | 111° |
| 2026-04-28 18:58 | 52.44794 | 4.28458 | 7687 ft | 273 kts | 111° |
| 2026-04-28 18:58 | 52.44104 | 4.31260 | 7456 ft | 256 kts | 111° |
| 2026-04-28 18:59 | 52.43443 | 4.33935 | 7245 ft | 251 kts | 110° |
| 2026-04-28 18:59 | 52.42793 | 4.36557 | 7031 ft | 248 kts | 110° |
| 2026-04-28 18:59 | 52.42155 | 4.39130 | 6826 ft | 246 kts | 110° |
| 2026-04-28 18:59 | 52.41511 | 4.41726 | 6617 ft | 246 kts | 110° |
| 2026-04-28 19:00 | 52.40870 | 4.44310 | 6396 ft | 245 kts | 110° |
| 2026-04-28 19:00 | 52.40230 | 4.46891 | 6180 ft | 244 kts | 110° |
| 2026-04-28 19:00 | 52.39594 | 4.49455 | 5969 ft | 243 kts | 110° |
| 2026-04-28 19:00 | 52.38829 | 4.51907 | 5760 ft | 243 kts | 129° |
| 2026-04-28 19:01 | 52.37464 | 4.53491 | 5552 ft | 244 kts | 161° |
| 2026-04-28 19:01 | 52.35792 | 4.53694 | 5357 ft | 243 kts | 194° |
| 2026-04-28 19:01 | 52.34310 | 4.52462 | 5154 ft | 240 kts | 225° |
| 2026-04-28 19:01 | 52.33167 | 4.50469 | 4952 ft | 241 kts | 231° |
| 2026-04-28 19:02 | 52.32110 | 4.48394 | 4739 ft | 240 kts | 232° |
| 2026-04-28 19:02 | 52.31055 | 4.46282 | 4533 ft | 240 kts | 232° |
| 2026-04-28 19:02 | 52.30006 | 4.44169 | 4355 ft | 239 kts | 233° |
| 2026-04-28 19:02 | 52.28960 | 4.42056 | 4267 ft | 239 kts | 232° |
| 2026-04-28 19:03 | 52.27915 | 4.39931 | 4256 ft | 242 kts | 231° |
| 2026-04-28 19:03 | 52.26640 | 4.38192 | 4267 ft | 236 kts | 201° |
| 2026-04-28 19:03 | 52.25110 | 4.37813 | 4262 ft | 215 kts | 166° |
| 2026-04-28 19:03 | 52.23867 | 4.38819 | 4290 ft | 193 kts | 132° |
| 2026-04-28 19:04 | 52.23009 | 4.40457 | 4291 ft | 189 kts | 124° |
| 2026-04-28 19:04 | 52.22226 | 4.42173 | 4275 ft | 188 kts | 122° |
| 2026-04-28 19:04 | 52.21514 | 4.43901 | 4153 ft | 183 kts | 112° |
| 2026-04-28 19:04 | 52.21194 | 4.45873 | 3767 ft | 180 kts | 95° |
| 2026-04-28 19:05 | 52.21056 | 4.47889 | 3459 ft | 176 kts | 93° |
| 2026-04-28 19:05 | 52.20952 | 4.49790 | 3293 ft | 162 kts | 92° |
| 2026-04-28 19:05 | 52.20857 | 4.51586 | 3021 ft | 157 kts | 92° |
| 2026-04-28 19:05 | 52.21041 | 4.53291 | 2948 ft | 154 kts | 66° |
| 2026-04-28 19:06 | 52.21589 | 4.54788 | 2755 ft | 153 kts | 58° |
| 2026-04-28 19:06 | 52.21970 | 4.55762 | 2618 ft | 154 kts | 58° |
| 2026-04-28 19:06 | 52.22731 | 4.57718 | 2342 ft | 152 kts | 58° |
| 2026-04-28 19:06 | 52.23292 | 4.59163 | 2136 ft | 150 kts | 59° |
| 2026-04-28 19:07 | 52.23849 | 4.60602 | 1930 ft | 149 kts | 59° |
| 2026-04-28 19:07 | 52.24393 | 4.62009 | 1735 ft | 148 kts | 59° |
| 2026-04-28 19:07 | 52.24941 | 4.63426 | 1523 ft | 147 kts | 59° |
| 2026-04-28 19:07 | 52.25472 | 4.64802 | 1319 ft | 136 kts | 58° |
| 2026-04-28 19:08 | 52.25951 | 4.66040 | 1102 ft | 125 kts | 58° |
| 2026-04-28 19:08 | 52.26407 | 4.67226 | 929 ft | 122 kts | 58° |
| 2026-04-28 19:08 | 52.26857 | 4.68431 | 783 ft | 125 kts | 57° |
| 2026-04-28 19:08 | 52.27332 | 4.69638 | 612 ft | 128 kts | 54° |
| 2026-04-28 19:09 | 52.27802 | 4.70876 | 422 ft | 131 kts | 58° |
| 2026-04-28 19:09 | 52.28293 | 4.72122 | 260 ft | 126 kts | 56° |
| 2026-04-28 19:09 | 52.28758 | 4.73329 | 109 ft | 126 kts | 56° |
| 2026-04-28 19:09 | 52.29208 | 4.74498 | 2 ft | 113 kts | 58° |
| 2026-04-28 19:10 | 52.29527 | 4.75322 | -3 ft | 58 kts | 57° |
| 2026-04-28 19:10 | 52.29669 | 4.75667 | -2 ft | 25 kts | 47° |
| 2026-04-28 19:10 | 52.29803 | 4.75823 | -3 ft | 23 kts | 27° |
| 2026-04-28 19:10 | 52.29937 | 4.75937 | -3 ft | 16 kts | 29° |
| 2026-04-28 19:11 | 52.30014 | 4.76053 | -2 ft | 15 kts | 53° |
| 2026-04-28 19:11 | 52.30068 | 4.76187 | -2 ft | 14 kts | 57° |
| 2026-04-28 19:11 | 52.30117 | 4.76313 | -2 ft | 13 kts | 57° |
| 2026-04-28 19:11 | 52.30163 | 4.76429 | -2 ft | 12 kts | 57° |
| 2026-04-28 19:12 | 52.30206 | 4.76540 | -2 ft | 11 kts | 58° |
| 2026-04-28 19:12 | 52.30246 | 4.76644 | -2 ft | 10 kts | 58° |
| 2026-04-28 19:12 | 52.30283 | 4.76741 | -3 ft | 10 kts | 57° |
| 2026-04-28 19:12 | 52.30319 | 4.76835 | -3 ft | 9 kts | 58° |
| 2026-04-28 19:13 | 52.30345 | 4.76906 | -3 ft | 9 kts | 59° |
| 2026-04-28 19:13 | 52.30377 | 4.76994 | -3 ft | 9 kts | 59° |
| 2026-04-28 19:13 | 52.30413 | 4.77089 | -3 ft | 12 kts | 58° |
| 2026-04-28 19:13 | 52.30469 | 4.77232 | -3 ft | 18 kts | 57° |
| 2026-04-28 19:14 | 52.30547 | 4.77435 | -2 ft | 24 kts | 57° |
| 2026-04-28 19:14 | 52.30607 | 4.77559 | -2 ft | 15 kts | 33° |
| 2026-04-28 19:14 | 52.30727 | 4.77591 | -2 ft | 19 kts | 2° |
| 2026-04-28 19:14 | 52.30862 | 4.77605 | -2 ft | 20 kts | 4° |
| 2026-04-28 19:15 | 52.30996 | 4.77622 | -2 ft | 20 kts | 4° |
| 2026-04-28 19:15 | 52.31136 | 4.77632 | -2 ft | 20 kts | 3° |
| 2026-04-28 19:15 | 52.31271 | 4.77646 | -2 ft | 18 kts | 3° |
| 2026-04-28 19:15 | 52.31353 | 4.77653 | -2 ft | 18 kts | 2° |
| 2026-04-28 19:16 | 52.31502 | 4.77578 | -2 ft | 17 kts | 322° |
| 2026-04-28 19:16 | 52.31570 | 4.77428 | -2 ft | 16 kts | 291° |
| 2026-04-28 19:16 | 52.31574 | 4.77251 | -3 ft | 15 kts | 267° |
| 2026-04-28 19:16 | 52.31569 | 4.77084 | -3 ft | 14 kts | 266° |
| 2026-04-28 19:17 | 52.31563 | 4.76932 | -2 ft | 13 kts | 266° |
| 2026-04-28 19:17 | 52.31558 | 4.76790 | -2 ft | 12 kts | 267° |
| 2026-04-28 19:17 | 52.31554 | 4.76659 | -2 ft | 11 kts | 268° |
| 2026-04-28 19:17 | 52.31551 | 4.76535 | -2 ft | 11 kts | 267° |
| 2026-04-28 19:18 | 52.31547 | 4.76416 | -2 ft | 10 kts | 266° |
| 2026-04-28 19:18 | 52.31542 | 4.76300 | -2 ft | 10 kts | 266° |
| 2026-04-28 19:18 | 52.31538 | 4.76161 | -2 ft | 14 kts | 268° |
| 2026-04-28 19:18 | 52.31532 | 4.75980 | -2 ft | 18 kts | 266° |
| 2026-04-28 19:19 | 52.31523 | 4.75755 | -2 ft | 22 kts | 266° |
| 2026-04-28 19:19 | 52.31516 | 4.75509 | -2 ft | 21 kts | 263° |
| 2026-04-28 19:19 | 52.31450 | 4.75439 | -2 ft | 14 kts | 184° |
| 2026-04-28 19:19 | 52.31359 | 4.75446 | -2 ft | 13 kts | 176° |
| 2026-04-28 19:20 | 52.31275 | 4.75455 | -2 ft | 12 kts | 176° |
| 2026-04-28 19:20 | 52.31198 | 4.75463 | -2 ft | 11 kts | 176° |
| 2026-04-28 19:20 | 52.31132 | 4.75500 | -2 ft | 10 kts | 148° |
| 2026-04-28 19:20 | 52.31083 | 4.75553 | -2 ft | 3 kts | 147° |
| 2026-04-28 19:21 | 52.31073 | 4.75564 | -2 ft | 0 kts | 146° |